createdAt,value
2018-05-10T00:00:09.746Z,1007.15
2018-05-10T00:01:09.791Z,1007.17
2018-05-10T00:02:09.811Z,1007.18
2018-05-10T00:03:09.844Z,1007.15
2018-05-10T00:04:09.866Z,1007.15
2018-05-10T00:05:09.900Z,1007.18
2018-05-10T00:06:09.936Z,1007.19
2018-05-10T00:07:09.956Z,1007.16
2018-05-10T00:08:09.980Z,1007.19
2018-05-10T00:09:10.011Z,1007.18
2018-05-10T00:10:10.046Z,1007.16
2018-05-10T00:11:10.075Z,1007.16
2018-05-10T00:12:10.100Z,1007.14
2018-05-10T00:13:10.181Z,1007.17
2018-05-10T00:14:10.160Z,1007.16
2018-05-10T00:15:10.190Z,1007.13
2018-05-10T00:16:10.219Z,1007.13
2018-05-10T00:17:10.250Z,1007.08
2018-05-10T00:18:10.275Z,1007.14
2018-05-10T00:19:10.314Z,1007.12
2018-05-10T00:20:10.340Z,1007.11
2018-05-10T00:21:10.365Z,1007.11
2018-05-10T00:22:10.393Z,1007.08
2018-05-10T00:23:10.423Z,1007.05
2018-05-10T00:24:10.451Z,1007.12
2018-05-10T00:25:10.487Z,1007.08
2018-05-10T00:26:10.512Z,1007.06
2018-05-10T00:27:10.539Z,1007.03
2018-05-10T00:28:10.565Z,1007.01
2018-05-10T00:29:10.609Z,1007.02
2018-05-10T00:30:10.628Z,1006.98
2018-05-10T00:31:10.657Z,1007.01
2018-05-10T00:32:10.691Z,1007.03
2018-05-10T00:33:10.727Z,1007.01
2018-05-10T00:34:10.745Z,1006.98
2018-05-10T00:35:10.772Z,1006.96
2018-05-10T00:36:10.800Z,1006.97
2018-05-10T00:37:10.830Z,1006.99
2018-05-10T00:38:10.860Z,1006.96
2018-05-10T00:39:10.889Z,1006.93
2018-05-10T00:40:10.919Z,1006.99
2018-05-10T00:41:10.953Z,1006.96
2018-05-10T00:42:10.978Z,1006.94
2018-05-10T00:43:11.009Z,1006.94
2018-05-10T00:44:11.034Z,1006.89
2018-05-10T00:45:11.065Z,1006.89
2018-05-10T00:46:11.091Z,1006.89
2018-05-10T00:47:11.126Z,1006.84
2018-05-10T00:48:11.150Z,1006.88
2018-05-10T00:49:11.180Z,1006.89
2018-05-10T00:50:11.210Z,1006.85
2018-05-10T00:51:11.257Z,1006.84
2018-05-10T00:52:11.267Z,1006.82
2018-05-10T00:53:11.296Z,1006.85
2018-05-10T00:54:11.325Z,1006.83
2018-05-10T00:55:11.358Z,1006.84
2018-05-10T00:56:11.387Z,1006.79
2018-05-10T00:57:11.415Z,1006.85
2018-05-10T00:58:11.442Z,1006.80
2018-05-10T00:59:11.469Z,1006.79
2018-05-10T01:00:11.503Z,1006.76
2018-05-10T01:01:11.528Z,1006.77
2018-05-10T01:02:11.559Z,1006.80
2018-05-10T01:03:11.590Z,1006.79
2018-05-10T01:04:11.616Z,1006.77
2018-05-10T01:05:11.644Z,1006.78
2018-05-10T01:06:11.671Z,1006.74
2018-05-10T01:07:11.703Z,1006.74
2018-05-10T01:08:11.735Z,1006.75
2018-05-10T01:09:11.764Z,1006.74
2018-05-10T01:10:11.788Z,1006.70
2018-05-10T01:11:11.823Z,1006.75
2018-05-10T01:12:11.846Z,1006.76
2018-05-10T01:13:11.874Z,1006.74
2018-05-10T01:14:11.905Z,1006.75
2018-05-10T01:15:11.934Z,1006.75
2018-05-10T01:16:11.965Z,1006.75
2018-05-10T01:17:11.990Z,1006.71
2018-05-10T01:18:12.019Z,1006.72
2018-05-10T01:19:12.052Z,1006.71
2018-05-10T01:20:12.078Z,1006.67
2018-05-10T01:21:12.109Z,1006.71
2018-05-10T01:22:12.137Z,1006.71
2018-05-10T01:23:12.164Z,1006.66
2018-05-10T01:24:12.194Z,1006.73
2018-05-10T01:25:12.224Z,1006.71
2018-05-10T01:26:12.258Z,1006.69
2018-05-10T01:27:12.282Z,1006.70
2018-05-10T01:28:12.308Z,1006.69
2018-05-10T01:29:12.340Z,1006.67
2018-05-10T01:30:12.368Z,1006.68
2018-05-10T01:31:12.396Z,1006.69
2018-05-10T01:32:12.427Z,1006.67
2018-05-10T01:33:12.452Z,1006.71
2018-05-10T01:34:12.486Z,1006.70
2018-05-10T01:35:12.512Z,1006.70
2018-05-10T01:36:12.543Z,1006.65
2018-05-10T01:37:12.569Z,1006.63
2018-05-10T01:38:12.597Z,1006.66
2018-05-10T01:39:12.627Z,1006.61
2018-05-10T01:40:12.657Z,1006.61
2018-05-10T01:41:12.685Z,1006.59
2018-05-10T01:42:12.717Z,1006.60
2018-05-10T01:43:12.737Z,1006.60
2018-05-10T01:44:12.771Z,1006.60
2018-05-10T01:45:12.802Z,1006.60
2018-05-10T01:46:12.829Z,1006.63
2018-05-10T01:47:12.862Z,1006.62
2018-05-10T01:48:12.883Z,1006.60
2018-05-10T01:49:12.913Z,1006.58
2018-05-10T01:50:12.947Z,1006.61
2018-05-10T01:51:12.968Z,1006.61
2018-05-10T01:52:13.004Z,1006.62
2018-05-10T01:53:13.033Z,1006.65
2018-05-10T01:54:13.059Z,1006.65
2018-05-10T01:55:13.094Z,1006.64
2018-05-10T01:56:13.113Z,1006.64
2018-05-10T01:57:13.146Z,1006.67
2018-05-10T01:58:13.177Z,1006.65
2018-05-10T01:59:13.218Z,1006.60
2018-05-10T02:00:13.227Z,1006.63
2018-05-10T02:01:13.257Z,1006.63
2018-05-10T02:02:13.286Z,1006.61
2018-05-10T02:03:13.320Z,1006.64
2018-05-10T02:04:13.350Z,1006.60
2018-05-10T02:05:13.377Z,1006.60
2018-05-10T02:06:13.405Z,1006.59
2018-05-10T02:07:13.431Z,1006.60
2018-05-10T02:08:13.486Z,1006.56
2018-05-10T02:09:13.493Z,1006.58
2018-05-10T02:10:13.516Z,1006.55
2018-05-10T02:11:13.547Z,1006.56
2018-05-10T02:12:13.578Z,1006.50
2018-05-10T02:13:13.602Z,1006.48
2018-05-10T02:14:13.633Z,1006.52
2018-05-10T02:15:13.662Z,1006.53
2018-05-10T02:16:13.690Z,1006.52
2018-05-10T02:17:13.725Z,1006.47
2018-05-10T02:18:13.750Z,1006.49
2018-05-10T02:19:13.775Z,1006.46
2018-05-10T02:20:13.804Z,1006.46
2018-05-10T02:21:13.830Z,1006.46
2018-05-10T02:22:13.866Z,1006.44
2018-05-10T02:23:13.892Z,1006.42
2018-05-10T02:24:13.921Z,1006.45
2018-05-10T02:25:13.949Z,1006.45
2018-05-10T02:26:13.979Z,1006.44
2018-05-10T02:27:14.006Z,1006.46
2018-05-10T02:28:14.034Z,1006.42
2018-05-10T02:29:14.062Z,1006.44
2018-05-10T02:30:14.091Z,1006.42
2018-05-10T02:31:14.121Z,1006.41
2018-05-10T02:32:14.154Z,1006.42
2018-05-10T02:33:14.181Z,1006.46
2018-05-10T02:34:14.207Z,1006.41
2018-05-10T02:35:14.234Z,1006.41
2018-05-10T02:36:14.305Z,1006.36
2018-05-10T02:37:14.298Z,1006.33
2018-05-10T02:38:14.324Z,1006.31
2018-05-10T02:39:14.350Z,1006.31
2018-05-10T02:40:14.380Z,1006.31
2018-05-10T02:41:14.415Z,1006.29
2018-05-10T02:42:14.439Z,1006.31
2018-05-10T02:43:14.474Z,1006.28
2018-05-10T02:44:14.489Z,1006.25
2018-05-10T02:45:14.524Z,1006.22
2018-05-10T02:46:14.551Z,1006.20
2018-05-10T02:47:14.578Z,1006.22
2018-05-10T02:48:14.609Z,1006.22
2018-05-10T02:49:14.637Z,1006.24
2018-05-10T02:50:14.666Z,1006.22
2018-05-10T02:51:14.697Z,1006.25
2018-05-10T02:52:14.733Z,1006.24
2018-05-10T02:53:14.754Z,1006.23
2018-05-10T02:54:14.785Z,1006.21
2018-05-10T02:55:14.803Z,1006.22
2018-05-10T02:56:14.842Z,1006.20
2018-05-10T02:57:14.872Z,1006.22
2018-05-10T02:58:14.894Z,1006.24
2018-05-10T02:59:14.919Z,1006.26
2018-05-10T03:00:14.954Z,1006.27
2018-05-10T03:01:14.980Z,1006.25
2018-05-10T03:02:15.012Z,1006.26
2018-05-10T03:03:15.033Z,1006.31
2018-05-10T03:04:15.068Z,1006.31
2018-05-10T03:05:15.097Z,1006.31
2018-05-10T03:06:15.123Z,1006.29
2018-05-10T03:07:15.153Z,1006.29
2018-05-10T03:08:15.186Z,1006.26
2018-05-10T03:09:15.209Z,1006.24
2018-05-10T03:10:15.234Z,1006.27
2018-05-10T03:11:15.266Z,1006.31
2018-05-10T03:12:15.294Z,1006.29
2018-05-10T03:13:15.322Z,1006.34
2018-05-10T03:14:15.351Z,1006.30
2018-05-10T03:15:15.378Z,1006.29
2018-05-10T03:16:15.408Z,1006.26
2018-05-10T03:17:15.435Z,1006.24
2018-05-10T03:18:15.494Z,1006.20
2018-05-10T03:19:15.499Z,1006.20
2018-05-10T03:20:15.524Z,1006.16
2018-05-10T03:21:15.550Z,1006.13
2018-05-10T03:22:15.578Z,1006.11
2018-05-10T03:23:15.612Z,1006.11
2018-05-10T03:24:15.640Z,1006.10
2018-05-10T03:25:15.669Z,1006.14
2018-05-10T03:26:15.692Z,1006.15
2018-05-10T03:27:15.720Z,1006.12
2018-05-10T03:28:15.754Z,1006.18
2018-05-10T03:29:15.779Z,1006.12
2018-05-10T03:30:15.803Z,1006.11
2018-05-10T03:31:15.832Z,1006.10
2018-05-10T03:32:15.867Z,1006.08
2018-05-10T03:33:15.986Z,1006.10
2018-05-10T03:34:15.918Z,1006.08
2018-05-10T03:35:15.950Z,1006.12
2018-05-10T03:36:15.977Z,1006.16
2018-05-10T03:37:16.011Z,1006.09
2018-05-10T03:38:16.037Z,1006.13
2018-05-10T03:39:16.062Z,1006.12
2018-05-10T03:40:16.095Z,1006.11
2018-05-10T03:41:16.122Z,1006.15
2018-05-10T03:42:16.143Z,1006.10
2018-05-10T03:43:16.176Z,1006.09
2018-05-10T03:44:16.205Z,1006.13
2018-05-10T03:45:16.236Z,1006.10
2018-05-10T03:46:16.287Z,1006.09
2018-05-10T03:47:16.291Z,1006.08
2018-05-10T03:48:16.315Z,1006.12
2018-05-10T03:49:16.351Z,1006.09
2018-05-10T03:50:16.377Z,1006.10
2018-05-10T03:51:16.400Z,1006.13
2018-05-10T03:52:16.436Z,1006.11
2018-05-10T03:53:16.457Z,1006.14
2018-05-10T03:54:16.482Z,1006.12
2018-05-10T03:55:16.511Z,1006.14
2018-05-10T03:56:16.547Z,1006.13
2018-05-10T03:57:16.570Z,1006.14
2018-05-10T03:58:16.606Z,1006.19
2018-05-10T03:59:16.655Z,1006.17
2018-05-10T04:00:16.652Z,1006.17
2018-05-10T04:01:16.686Z,1006.17
2018-05-10T04:02:16.713Z,1006.18
2018-05-10T04:03:16.737Z,1006.20
2018-05-10T04:04:16.770Z,1006.25
2018-05-10T04:05:16.791Z,1006.28
2018-05-10T04:06:16.823Z,1006.26
2018-05-10T04:07:16.863Z,1006.28
2018-05-10T04:08:16.877Z,1006.25
2018-05-10T04:09:16.907Z,1006.24
2018-05-10T04:10:16.935Z,1006.27
2018-05-10T04:11:16.966Z,1006.31
2018-05-10T04:12:16.991Z,1006.31
2018-05-10T04:13:17.026Z,1006.28
2018-05-10T04:14:17.050Z,1006.28
2018-05-10T04:15:17.081Z,1006.23
2018-05-10T04:16:17.102Z,1006.26
2018-05-10T04:17:17.140Z,1006.23
2018-05-10T04:18:17.160Z,1006.22
2018-05-10T04:19:17.189Z,1006.21
2018-05-10T04:20:17.217Z,1006.17
2018-05-10T04:21:17.247Z,1006.18
2018-05-10T04:22:17.271Z,1006.18
2018-05-10T04:23:17.303Z,1006.16
2018-05-10T04:24:17.332Z,1006.12
2018-05-10T04:25:17.357Z,1006.11
2018-05-10T04:26:17.387Z,1006.10
2018-05-10T04:27:17.510Z,1006.08
2018-05-10T04:28:17.446Z,1006.10
2018-05-10T04:29:17.470Z,1006.13
2018-05-10T04:30:17.497Z,1006.08
2018-05-10T04:31:17.527Z,1006.11
2018-05-10T04:32:17.558Z,1006.09
2018-05-10T04:33:17.588Z,1006.11
2018-05-10T04:34:17.611Z,1006.09
2018-05-10T04:35:17.641Z,1006.12
2018-05-10T04:36:17.665Z,1006.12
2018-05-10T04:37:17.696Z,1006.16
2018-05-10T04:38:17.726Z,1006.13
2018-05-10T04:39:17.757Z,1006.11
2018-05-10T04:40:17.780Z,1006.15
2018-05-10T04:41:17.811Z,1006.16
2018-05-10T04:42:17.922Z,1006.22
2018-05-10T04:43:17.869Z,1006.19
2018-05-10T04:44:17.899Z,1006.22
2018-05-10T04:45:17.923Z,1006.19
2018-05-10T04:46:17.952Z,1006.17
2018-05-10T04:47:17.981Z,1006.15
2018-05-10T04:48:18.005Z,1006.17
2018-05-10T04:49:18.035Z,1006.14
2018-05-10T04:50:18.062Z,1006.14
2018-05-10T04:51:18.095Z,1006.17
2018-05-10T04:52:18.124Z,1006.13
2018-05-10T04:53:18.154Z,1006.16
2018-05-10T04:54:18.179Z,1006.18
2018-05-10T04:55:18.202Z,1006.23
2018-05-10T04:56:18.235Z,1006.23
2018-05-10T04:57:18.259Z,1006.19
2018-05-10T04:58:18.289Z,1006.14
2018-05-10T04:59:18.317Z,1006.16
2018-05-10T05:00:18.346Z,1006.21
2018-05-10T05:01:18.402Z,1006.19
2018-05-10T05:02:18.411Z,1006.17
2018-05-10T05:03:18.514Z,1006.17
2018-05-10T05:04:18.463Z,1006.17
2018-05-10T05:05:18.493Z,1006.18
2018-05-10T05:06:18.514Z,1006.19
2018-05-10T05:07:18.549Z,1006.19
2018-05-10T05:08:18.578Z,1006.16
2018-05-10T05:09:18.603Z,1006.13
2018-05-10T05:10:18.636Z,1006.14
2018-05-10T05:11:18.659Z,1006.11
2018-05-10T05:12:18.689Z,1006.12
2018-05-10T05:13:18.718Z,1006.10
2018-05-10T05:14:18.739Z,1006.17
2018-05-10T05:15:18.777Z,1006.15
2018-05-10T05:16:18.798Z,1006.21
2018-05-10T05:17:18.829Z,1006.22
2018-05-10T05:18:18.854Z,1006.24
2018-05-10T05:19:18.888Z,1006.23
2018-05-10T05:20:18.916Z,1006.26
2018-05-10T05:21:18.944Z,1006.28
2018-05-10T05:22:18.970Z,1006.27
2018-05-10T05:23:18.998Z,1006.26
2018-05-10T05:24:19.028Z,1006.25
2018-05-10T05:25:19.063Z,1006.26
2018-05-10T05:26:19.084Z,1006.25
2018-05-10T05:27:19.108Z,1006.23
2018-05-10T05:28:19.137Z,1006.25
2018-05-10T05:29:19.171Z,1006.29
2018-05-10T05:30:19.198Z,1006.35
2018-05-10T05:31:19.223Z,1006.35
2018-05-10T05:32:19.257Z,1006.35
2018-05-10T05:33:19.282Z,1006.34
2018-05-10T05:34:19.316Z,1006.35
2018-05-10T05:35:19.337Z,1006.36
2018-05-10T05:36:19.372Z,1006.40
2018-05-10T05:37:19.400Z,1006.39
2018-05-10T05:38:19.424Z,1006.40
2018-05-10T05:39:19.461Z,1006.40
2018-05-10T05:40:19.483Z,1006.40
2018-05-10T05:41:19.537Z,1006.40
2018-05-10T05:42:19.542Z,1006.44
2018-05-10T05:43:19.681Z,1006.44
2018-05-10T05:44:19.603Z,1006.43
2018-05-10T05:45:19.632Z,1006.37
2018-05-10T05:46:19.662Z,1006.40
2018-05-10T05:47:19.686Z,1006.40
2018-05-10T05:48:19.712Z,1006.34
2018-05-10T05:49:19.746Z,1006.32
2018-05-10T05:50:19.776Z,1006.31
2018-05-10T05:51:19.829Z,1006.33
2018-05-10T05:52:19.830Z,1006.27
2018-05-10T05:53:19.857Z,1006.27
2018-05-10T05:54:19.888Z,1006.29
2018-05-10T05:55:19.916Z,1006.29
2018-05-10T05:56:19.950Z,1006.27
2018-05-10T05:57:19.979Z,1006.27
2018-05-10T05:58:20.008Z,1006.33
2018-05-10T05:59:20.039Z,1006.36
2018-05-10T06:00:20.069Z,1006.36
2018-05-10T06:01:20.097Z,1006.42
2018-05-10T06:02:20.132Z,1006.42
2018-05-10T06:03:20.158Z,1006.49
2018-05-10T06:04:20.186Z,1006.51
2018-05-10T06:05:20.212Z,1006.49
2018-05-10T06:06:20.247Z,1006.50
2018-05-10T06:07:20.273Z,1006.51
2018-05-10T06:08:20.302Z,1006.53
2018-05-10T06:09:20.330Z,1006.55
2018-05-10T06:10:20.356Z,1006.59
2018-05-10T06:11:20.391Z,1006.63
2018-05-10T06:12:20.419Z,1006.56
2018-05-10T06:13:20.449Z,1006.61
2018-05-10T06:14:20.472Z,1006.58
2018-05-10T06:15:20.506Z,1006.53
2018-05-10T06:16:20.535Z,1006.59
2018-05-10T06:17:20.561Z,1006.58
2018-05-10T06:18:20.590Z,1006.63
2018-05-10T06:19:20.629Z,1006.63
2018-05-10T06:20:20.656Z,1006.64
2018-05-10T06:21:20.686Z,1006.65
2018-05-10T06:22:20.715Z,1006.65
2018-05-10T06:23:20.747Z,1006.68
2018-05-10T06:24:20.770Z,1006.70
2018-05-10T06:25:20.802Z,1006.77
2018-05-10T06:26:20.840Z,1006.81
2018-05-10T06:27:20.867Z,1006.75
2018-05-10T06:28:20.894Z,1006.77
2018-05-10T06:29:20.921Z,1006.77
2018-05-10T06:30:20.952Z,1006.79
2018-05-10T06:31:20.981Z,1006.82
2018-05-10T06:32:21.019Z,1006.82
2018-05-10T06:33:21.046Z,1006.82
2018-05-10T06:34:21.077Z,1006.83
2018-05-10T06:35:21.100Z,1006.78
2018-05-10T06:36:21.135Z,1006.78
2018-05-10T06:37:21.156Z,1006.75
2018-05-10T06:38:21.184Z,1006.76
2018-05-10T06:39:21.224Z,1006.73
2018-05-10T06:40:21.244Z,1006.77
2018-05-10T06:41:21.285Z,1006.83
2018-05-10T06:42:21.306Z,1006.87
2018-05-10T06:43:21.336Z,1006.88
2018-05-10T06:44:21.365Z,1006.94
2018-05-10T06:45:21.406Z,1006.95
2018-05-10T06:46:21.426Z,1006.90
2018-05-10T06:47:21.454Z,1006.89
2018-05-10T06:48:21.485Z,1006.84
2018-05-10T06:49:21.521Z,1006.82
2018-05-10T06:50:21.547Z,1006.81
2018-05-10T06:51:21.574Z,1006.80
2018-05-10T06:52:21.604Z,1006.81
2018-05-10T06:53:21.635Z,1006.80
2018-05-10T06:54:21.670Z,1006.84
2018-05-10T06:55:21.696Z,1006.87
2018-05-10T06:56:21.725Z,1006.90
2018-05-10T06:57:21.755Z,1006.89
2018-05-10T06:58:21.784Z,1006.87
2018-05-10T06:59:21.814Z,1006.87
2018-05-10T07:00:21.854Z,1006.83
2018-05-10T07:01:21.878Z,1006.82
2018-05-10T07:02:21.904Z,1006.85
2018-05-10T07:03:21.991Z,1006.84
2018-05-10T07:04:21.963Z,1006.87
2018-05-10T07:05:22.002Z,1006.86
2018-05-10T07:06:22.026Z,1006.86
2018-05-10T07:07:22.061Z,1006.87
2018-05-10T07:08:22.089Z,1006.87
2018-05-10T07:09:22.136Z,1006.86
2018-05-10T07:10:22.153Z,1006.90
2018-05-10T07:11:22.183Z,1006.91
2018-05-10T07:12:22.207Z,1006.92
2018-05-10T07:13:22.240Z,1006.89
2018-05-10T07:14:22.267Z,1006.88
2018-05-10T07:15:22.303Z,1006.88
2018-05-10T07:16:22.330Z,1006.86
2018-05-10T07:17:22.363Z,1006.86
2018-05-10T07:18:22.386Z,1006.88
2018-05-10T07:19:22.423Z,1006.89
2018-05-10T07:20:22.455Z,1006.88
2018-05-10T07:21:22.480Z,1006.91
2018-05-10T07:22:22.516Z,1006.89
2018-05-10T07:23:22.545Z,1006.93
2018-05-10T07:24:22.574Z,1006.96
2018-05-10T07:25:22.753Z,1006.93
2018-05-10T07:26:22.638Z,1006.91
2018-05-10T07:27:22.666Z,1006.88
2018-05-10T07:28:22.697Z,1006.87
2018-05-10T07:29:22.727Z,1006.84
2018-05-10T07:30:22.762Z,1006.78
2018-05-10T07:31:22.794Z,1006.77
2018-05-10T07:32:22.827Z,1006.75
2018-05-10T07:33:22.848Z,1006.74
2018-05-10T07:34:22.878Z,1006.74
2018-05-10T07:35:22.908Z,1006.74
2018-05-10T07:36:22.941Z,1006.74
2018-05-10T07:37:22.971Z,1006.80
2018-05-10T07:38:23.002Z,1006.82
2018-05-10T07:39:23.033Z,1006.85
2018-05-10T07:40:23.064Z,1006.82
2018-05-10T07:41:23.164Z,1006.85
2018-05-10T07:42:23.124Z,1006.89
2018-05-10T07:43:23.156Z,1006.91
2018-05-10T07:44:23.185Z,1006.92
2018-05-10T07:45:23.218Z,1006.93
2018-05-10T07:46:23.247Z,1006.87
2018-05-10T07:47:23.286Z,1006.92
2018-05-10T07:48:23.315Z,1006.88
2018-05-10T07:49:23.342Z,1006.90
2018-05-10T07:50:23.367Z,1006.87
2018-05-10T07:51:23.404Z,1006.86
2018-05-10T07:52:23.429Z,1006.88
2018-05-10T07:53:23.464Z,1006.89
2018-05-10T07:54:23.495Z,1006.90
2018-05-10T07:55:23.528Z,1006.87
2018-05-10T07:56:23.552Z,1006.82
2018-05-10T07:57:23.595Z,1006.81
2018-05-10T07:58:23.613Z,1006.82
2018-05-10T07:59:23.648Z,1006.87
2018-05-10T08:00:23.677Z,1006.86
2018-05-10T08:01:23.716Z,1006.85
2018-05-10T08:02:23.779Z,1006.84
2018-05-10T08:03:23.772Z,1006.83
2018-05-10T08:04:23.802Z,1006.87
2018-05-10T08:05:23.839Z,1006.89
2018-05-10T08:06:23.863Z,1006.92
2018-05-10T08:07:23.892Z,1006.93
2018-05-10T08:08:23.925Z,1006.93
2018-05-10T08:09:24.007Z,1006.99
2018-05-10T08:10:23.987Z,1007.02
2018-05-10T08:11:24.016Z,1007.08
2018-05-10T08:12:24.047Z,1007.08
2018-05-10T08:13:24.081Z,1007.08
2018-05-10T08:14:24.112Z,1007.10
2018-05-10T08:15:24.143Z,1007.14
2018-05-10T08:16:24.179Z,1007.13
2018-05-10T08:17:24.204Z,1007.06
2018-05-10T08:18:24.244Z,1007.01
2018-05-10T08:19:24.271Z,1007.00
2018-05-10T08:20:24.300Z,1006.97
2018-05-10T08:21:24.331Z,1006.99
2018-05-10T08:22:24.364Z,1007.02
2018-05-10T08:23:24.385Z,1007.06
2018-05-10T08:24:24.420Z,1007.04
2018-05-10T08:25:24.452Z,1007.04
2018-05-10T08:26:24.485Z,1007.01
2018-05-10T08:27:24.517Z,1006.94
2018-05-10T08:28:24.551Z,1006.91
2018-05-10T08:29:24.577Z,1006.93
2018-05-10T08:30:24.612Z,1006.91
2018-05-10T08:31:24.644Z,1006.93
2018-05-10T08:32:24.671Z,1006.95
2018-05-10T08:33:24.703Z,1006.94
2018-05-10T08:34:24.732Z,1006.97
2018-05-10T08:35:24.761Z,1006.98
2018-05-10T08:36:24.887Z,1006.97
2018-05-10T08:37:24.838Z,1006.93
2018-05-10T08:38:24.863Z,1006.96
2018-05-10T08:39:24.894Z,1006.92
2018-05-10T08:40:24.920Z,1006.93
2018-05-10T08:41:24.954Z,1006.88
2018-05-10T08:42:24.985Z,1006.85
2018-05-10T08:43:25.018Z,1006.85
2018-05-10T08:44:25.047Z,1006.80
2018-05-10T08:45:25.087Z,1006.79
2018-05-10T08:46:25.113Z,1006.74
2018-05-10T08:47:25.140Z,1006.73
2018-05-10T08:48:25.176Z,1006.74
2018-05-10T08:49:25.205Z,1006.75
2018-05-10T08:50:25.232Z,1006.76
2018-05-10T08:51:25.272Z,1006.76
2018-05-10T08:52:25.305Z,1006.78
2018-05-10T08:53:25.339Z,1006.81
2018-05-10T08:54:25.359Z,1006.84
2018-05-10T08:55:25.390Z,1006.84
2018-05-10T08:56:25.420Z,1006.85
2018-05-10T08:57:25.463Z,1006.91
2018-05-10T08:58:25.489Z,1006.94
2018-05-10T08:59:25.518Z,1006.96
2018-05-10T09:00:25.544Z,1007.01
2018-05-10T09:01:25.580Z,1007.02
2018-05-10T09:02:25.608Z,1007.06
2018-05-10T09:03:25.641Z,1007.10
2018-05-10T09:04:25.675Z,1007.09
2018-05-10T09:05:25.707Z,1007.06
2018-05-10T09:06:25.753Z,1007.03
2018-05-10T09:07:25.774Z,1007.04
2018-05-10T09:08:25.798Z,1007.02
2018-05-10T09:09:25.832Z,1007.05
2018-05-10T09:10:25.866Z,1007.08
2018-05-10T09:11:25.897Z,1007.09
2018-05-10T09:12:25.928Z,1007.13
2018-05-10T09:13:25.967Z,1007.10
2018-05-10T09:14:26.000Z,1007.08
2018-05-10T09:15:26.018Z,1007.06
2018-05-10T09:16:26.055Z,1007.00
2018-05-10T09:17:26.084Z,1006.94
2018-05-10T09:18:26.115Z,1006.94
2018-05-10T09:19:26.143Z,1006.93
2018-05-10T09:20:26.173Z,1006.90
2018-05-10T09:21:26.208Z,1006.91
2018-05-10T09:22:26.238Z,1006.91
2018-05-10T09:23:26.278Z,1006.91
2018-05-10T09:24:26.305Z,1006.93
2018-05-10T09:25:26.337Z,1006.92
2018-05-10T09:26:26.363Z,1006.93
2018-05-10T09:27:26.393Z,1006.94
2018-05-10T09:28:26.429Z,1006.93
2018-05-10T09:29:26.457Z,1006.97
2018-05-10T09:30:26.504Z,1007.00
2018-05-10T09:31:26.611Z,1007.05
2018-05-10T09:32:26.554Z,1007.14
2018-05-10T09:33:26.583Z,1007.16
2018-05-10T09:34:26.621Z,1007.18
2018-05-10T09:35:26.647Z,1007.20
2018-05-10T09:36:26.680Z,1007.22
2018-05-10T09:37:26.713Z,1007.31
2018-05-10T09:38:26.737Z,1007.27
2018-05-10T09:39:26.873Z,1007.25
2018-05-10T09:40:26.803Z,1007.27
2018-05-10T09:41:26.833Z,1007.30
2018-05-10T09:42:26.869Z,1007.30
2018-05-10T09:43:26.898Z,1007.34
2018-05-10T09:44:26.931Z,1007.33
2018-05-10T09:45:26.963Z,1007.34
2018-05-10T09:46:26.992Z,1007.40
2018-05-10T09:47:27.031Z,1007.41
2018-05-10T09:48:27.054Z,1007.41
2018-05-10T09:49:27.091Z,1007.34
2018-05-10T09:50:27.117Z,1007.31
2018-05-10T09:51:27.148Z,1007.31
2018-05-10T09:52:27.182Z,1007.26
2018-05-10T09:53:27.218Z,1007.26
2018-05-10T09:54:27.247Z,1007.28
2018-05-10T09:55:27.279Z,1007.24
2018-05-10T09:56:27.316Z,1007.22
2018-05-10T09:57:27.346Z,1007.13
2018-05-10T09:58:27.372Z,1007.08
2018-05-10T09:59:27.411Z,1007.02
2018-05-10T10:00:27.440Z,1007.00
2018-05-10T10:01:27.475Z,1007.04
2018-05-10T10:02:27.503Z,1007.02
2018-05-10T10:03:27.532Z,1007.03
2018-05-10T10:04:27.573Z,1007.01
2018-05-10T10:05:27.596Z,1007.00
2018-05-10T10:06:27.637Z,1006.98
2018-05-10T10:07:27.663Z,1006.95
2018-05-10T10:08:27.700Z,1006.98
2018-05-10T10:09:27.737Z,1007.00
2018-05-10T10:10:27.756Z,1006.98
2018-05-10T10:11:27.789Z,1007.06
2018-05-10T10:12:27.817Z,1007.02
2018-05-10T10:13:27.856Z,1007.02
2018-05-10T10:14:27.887Z,1007.06
2018-05-10T10:15:27.913Z,1007.16
2018-05-10T10:16:27.946Z,1007.19
2018-05-10T10:17:27.977Z,1007.22
2018-05-10T10:18:28.017Z,1007.22
2018-05-10T10:19:28.045Z,1007.30
2018-05-10T10:20:28.072Z,1007.35
2018-05-10T10:21:28.106Z,1007.42
2018-05-10T10:22:28.139Z,1007.42
2018-05-10T10:23:28.166Z,1007.35
2018-05-10T10:24:28.204Z,1007.30
2018-05-10T10:25:28.235Z,1007.29
2018-05-10T10:26:28.265Z,1007.27
2018-05-10T10:27:28.331Z,1007.24
2018-05-10T10:28:28.327Z,1007.24
2018-05-10T10:29:28.359Z,1007.22
2018-05-10T10:30:28.392Z,1007.10
2018-05-10T10:31:28.436Z,1007.05
2018-05-10T10:32:28.539Z,1007.11
2018-05-10T10:33:28.486Z,1007.15
2018-05-10T10:34:28.598Z,1007.11
2018-05-10T10:35:28.560Z,1007.16
2018-05-10T10:36:28.581Z,1007.13
2018-05-10T10:37:28.619Z,1007.12
2018-05-10T10:38:28.648Z,1007.11
2018-05-10T10:39:28.681Z,1007.14
2018-05-10T10:40:28.714Z,1007.12
2018-05-10T10:41:28.745Z,1007.12
2018-05-10T10:42:28.774Z,1007.16
2018-05-10T10:43:28.807Z,1007.12
2018-05-10T10:44:28.848Z,1007.18
2018-05-10T10:45:28.922Z,1007.14
2018-05-10T10:46:28.900Z,1007.06
2018-05-10T10:47:28.934Z,1007.10
2018-05-10T10:48:28.971Z,1007.15
2018-05-10T10:49:29.004Z,1007.22
2018-05-10T10:50:29.032Z,1007.19
2018-05-10T10:51:29.062Z,1007.39
2018-05-10T10:52:29.100Z,1007.36
2018-05-10T10:53:29.133Z,1007.55
2018-05-10T10:54:29.168Z,1007.50
2018-05-10T10:55:29.195Z,1007.55
2018-05-10T10:56:29.230Z,1007.61
2018-05-10T10:57:29.255Z,1007.59
2018-05-10T10:58:29.299Z,1007.62
2018-05-10T10:59:29.331Z,1007.55
2018-05-10T11:00:29.354Z,1007.51
2018-05-10T11:01:29.386Z,1007.42
2018-05-10T11:02:29.428Z,1007.44
2018-05-10T11:03:29.454Z,1007.41
2018-05-10T11:04:29.491Z,1007.41
2018-05-10T11:05:29.526Z,1007.43
2018-05-10T11:06:29.553Z,1007.46
2018-05-10T11:07:29.590Z,1007.50
2018-05-10T11:08:29.639Z,1007.46
2018-05-10T11:09:29.669Z,1007.48
2018-05-10T11:10:29.700Z,1007.52
2018-05-10T11:11:29.735Z,1007.48
2018-05-10T11:12:29.770Z,1007.46
2018-05-10T11:13:29.806Z,1007.45
2018-05-10T11:14:29.841Z,1007.55
2018-05-10T11:15:29.875Z,1007.50
2018-05-10T11:16:29.915Z,1007.54
2018-05-10T11:17:29.950Z,1007.55
2018-05-10T11:18:29.985Z,1007.63
2018-05-10T11:19:30.025Z,1007.56
2018-05-10T11:20:30.058Z,1007.64
2018-05-10T11:21:30.097Z,1007.60
2018-05-10T11:22:30.154Z,1007.61
2018-05-10T11:23:30.180Z,1007.67
2018-05-10T11:24:30.203Z,1007.67
2018-05-10T11:25:30.250Z,1007.73
2018-05-10T11:26:30.283Z,1007.72
2018-05-10T11:27:30.329Z,1007.79
2018-05-10T11:28:30.363Z,1007.76
2018-05-10T11:29:30.393Z,1007.38
2018-05-10T11:30:30.433Z,1007.23
2018-05-10T11:31:30.473Z,1007.20
2018-05-10T11:32:30.512Z,1007.14
2018-05-10T11:33:30.544Z,1007.09
2018-05-10T11:34:30.578Z,1007.09
2018-05-10T11:35:30.623Z,1007.07
2018-05-10T11:36:30.656Z,1007.05
2018-05-10T11:37:30.688Z,1007.03
2018-05-10T11:38:30.727Z,1006.97
2018-05-10T11:39:30.767Z,1006.97
2018-05-10T11:40:30.799Z,1007.05
2018-05-10T11:41:30.839Z,1007.14
2018-05-10T11:42:30.876Z,1007.11
2018-05-10T11:43:30.904Z,1007.06
2018-05-10T11:44:30.949Z,1007.11
2018-05-10T11:45:30.977Z,1007.14
2018-05-10T11:46:31.010Z,1007.15
2018-05-10T11:47:31.043Z,1007.08
2018-05-10T11:48:31.082Z,1007.07
2018-05-10T11:49:31.125Z,1007.04
2018-05-10T11:50:31.146Z,1006.93
2018-05-10T11:51:31.188Z,1006.90
2018-05-10T11:52:31.228Z,1006.87
2018-05-10T11:53:31.252Z,1006.84
2018-05-10T11:54:31.287Z,1006.74
2018-05-10T11:55:31.321Z,1006.71
2018-05-10T11:56:31.354Z,1006.73
2018-05-10T11:57:31.382Z,1006.70
2018-05-10T11:58:31.417Z,1006.73
2018-05-10T11:59:31.452Z,1006.72
2018-05-10T12:00:31.492Z,1006.67
2018-05-10T12:01:31.518Z,1006.67
2018-05-10T12:02:31.601Z,1006.71
2018-05-10T12:03:31.596Z,1006.68
2018-05-10T12:04:31.616Z,1006.69
2018-05-10T12:05:31.647Z,1006.71